createdAt,value
2019-03-20T00:00:36.979Z,77.38
2019-03-20T00:03:24.257Z,77.36
2019-03-20T00:18:44.214Z,77.94
2019-03-20T00:21:31.931Z,76.44
2019-03-20T00:33:52.383Z,76.60
2019-03-20T00:36:42.438Z,77.11
2019-03-20T00:45:42.084Z,76.47
2019-03-20T00:57:47.417Z,78.23
2019-03-20T01:00:34.148Z,78.34
2019-03-20T01:12:39.419Z,79.32
2019-03-20T01:27:58.576Z,78.26
2019-03-20T02:01:47.113Z,80.71
2019-03-20T02:04:34.181Z,80.84
2019-03-20T02:07:21.188Z,80.67
2019-03-20T02:16:40.537Z,80.57
2019-03-20T02:34:59.471Z,81.10
2019-03-20T03:08:47.877Z,81.57
2019-03-20T03:27:21.333Z,82.05
2019-03-20T03:52:01.397Z,80.45
2019-03-20T04:01:14.557Z,81.22
2019-03-20T04:04:08.634Z,81.65
2019-03-20T04:06:55.540Z,81.81
2019-03-20T04:43:49.186Z,82.99
2019-03-20T04:46:35.844Z,83.03
2019-03-20T04:55:36.614Z,83.46
2019-03-20T05:23:20.251Z,83.12
2019-03-20T05:26:07.435Z,83.09
2019-03-20T05:29:08.921Z,82.90
2019-03-20T05:35:02.282Z,83.16
2019-03-20T05:44:05.247Z,82.81
2019-03-20T05:53:04.768Z,82.84
2019-03-20T05:55:51.903Z,82.86
2019-03-20T06:20:37.263Z,82.81
2019-03-20T06:23:24.537Z,82.86
2019-03-20T06:47:53.918Z,80.85
2019-03-20T07:19:27.283Z,73.53
2019-03-20T07:34:40.281Z,74.49
2019-03-20T07:37:28.018Z,74.28
2019-03-20T07:40:14.984Z,73.59
2019-03-20T07:43:08.830Z,73.57
2019-03-20T07:45:48.962Z,73.75
2019-03-20T07:48:36.509Z,73.26
2019-03-20T07:51:23.722Z,72.79
2019-03-20T07:54:10.663Z,69.22
2019-03-20T07:56:58.347Z,70.41
2019-03-20T07:59:45.306Z,70.71
2019-03-20T08:02:32.116Z,69.56
2019-03-20T08:05:28.687Z,70.07
2019-03-20T08:08:07.976Z,66.01
2019-03-20T08:10:54.371Z,67.61
2019-03-20T08:13:41.574Z,66.69
2019-03-20T08:16:28.218Z,67.56
2019-03-20T08:19:16.305Z,67.58
2019-03-20T08:22:03.568Z,63.35
2019-03-20T08:24:51.155Z,65.81
2019-03-20T08:27:39.093Z,65.97
2019-03-20T08:30:26.020Z,66.26
2019-03-20T08:33:15.165Z,65.02
2019-03-20T08:36:01.851Z,64.51
2019-03-20T08:38:49.135Z,64.27
2019-03-20T08:41:36.117Z,64.49
2019-03-20T08:44:23.639Z,65.40
2019-03-20T08:47:10.572Z,63.11
2019-03-20T08:50:00.426Z,62.71
2019-03-20T08:52:47.067Z,62.36
2019-03-20T08:55:34.066Z,60.75
2019-03-20T08:58:21.595Z,62.56
2019-03-20T09:01:09.611Z,62.34
2019-03-20T09:03:57.241Z,61.60
2019-03-20T09:12:56.398Z,60.56
2019-03-20T09:15:43.892Z,59.58
2019-03-20T09:21:39.094Z,58.54
2019-03-20T09:24:26.054Z,57.90
2019-03-20T09:33:29.003Z,58.26
2019-03-20T09:36:16.838Z,57.79
2019-03-20T09:39:04.054Z,56.50
2019-03-20T09:44:57.237Z,52.17
2019-03-20T09:47:44.378Z,52.65
2019-03-20T09:50:31.240Z,53.39
2019-03-20T09:53:18.410Z,53.26
2019-03-20T09:56:19.651Z,47.43
2019-03-20T09:59:07.141Z,50.84
2019-03-20T10:01:55.158Z,52.12
2019-03-20T10:04:42.198Z,52.64
2019-03-20T10:07:43.746Z,52.00
2019-03-20T10:10:30.815Z,46.48
2019-03-20T10:13:18.484Z,45.19
2019-03-20T10:16:05.721Z,47.65
2019-03-20T10:18:53.140Z,50.01
2019-03-20T10:24:46.608Z,51.37
2019-03-20T10:27:38.006Z,51.67
2019-03-20T10:30:29.014Z,46.96
2019-03-20T10:33:23.447Z,48.45
2019-03-20T10:36:10.654Z,50.31
2019-03-20T10:39:06.301Z,50.03
2019-03-20T10:41:44.668Z,48.71
2019-03-20T10:44:31.885Z,50.05
2019-03-20T10:47:19.034Z,49.47
2019-03-20T10:50:08.884Z,50.33
2019-03-20T10:52:57.024Z,49.59
2019-03-20T10:55:45.268Z,43.34
2019-03-20T10:58:32.977Z,46.82
2019-03-20T11:07:32.734Z,48.20
2019-03-20T11:10:22.305Z,48.73
2019-03-20T11:13:09.412Z,48.14
2019-03-20T11:15:56.518Z,48.43
2019-03-20T11:18:44.805Z,41.45
2019-03-20T11:21:32.436Z,46.14
2019-03-20T11:24:19.429Z,47.66
2019-03-20T11:27:06.561Z,42.47
2019-03-20T11:29:54.394Z,45.81
2019-03-20T11:32:41.374Z,46.37
2019-03-20T11:35:28.358Z,46.73
2019-03-20T11:38:15.790Z,42.34
2019-03-20T11:41:02.639Z,40.81
2019-03-20T11:43:51.004Z,43.94
2019-03-20T11:46:37.360Z,40.06
2019-03-20T11:49:24.664Z,42.74
2019-03-20T11:52:11.471Z,43.03
2019-03-20T11:54:58.179Z,43.33
2019-03-20T11:57:44.961Z,39.36
2019-03-20T12:00:31.931Z,43.74
2019-03-20T12:03:22.520Z,44.85
2019-03-20T12:06:10.784Z,45.57
2019-03-20T12:08:58.497Z,44.38
2019-03-20T12:11:46.379Z,44.57
2019-03-20T12:14:33.571Z,45.45
2019-03-20T12:17:20.891Z,44.58
2019-03-20T12:20:17.323Z,44.60
2019-03-20T12:23:04.474Z,46.14
2019-03-20T12:25:51.968Z,44.58
2019-03-20T12:28:40.088Z,43.82
2019-03-20T12:31:27.234Z,44.69
2019-03-20T12:34:14.755Z,45.94
2019-03-20T12:37:01.460Z,45.73
2019-03-20T12:39:53.030Z,45.90
2019-03-20T12:42:38.580Z,44.31
2019-03-20T12:45:31.009Z,44.76
2019-03-20T12:48:18.430Z,45.63
2019-03-20T12:51:05.755Z,44.32
2019-03-20T12:53:55.634Z,40.10
2019-03-20T12:56:43.359Z,42.33
2019-03-20T13:02:36.656Z,43.05
2019-03-20T13:05:23.959Z,43.19
2019-03-20T13:08:10.879Z,43.55
2019-03-20T13:10:58.080Z,43.79
2019-03-20T13:13:45.215Z,43.68
2019-03-20T13:16:32.926Z,44.53
2019-03-20T13:19:21.062Z,39.57
2019-03-20T13:22:08.087Z,42.27
2019-03-20T13:28:01.614Z,42.49
2019-03-20T13:30:52.052Z,39.31
2019-03-20T13:33:39.587Z,42.14
2019-03-20T13:36:27.117Z,41.47
2019-03-20T13:42:20.534Z,42.80
2019-03-20T13:45:19.336Z,37.44
2019-03-20T13:48:06.537Z,41.47
2019-03-20T13:50:53.417Z,41.82
2019-03-20T13:53:40.529Z,41.88
2019-03-20T13:56:34.789Z,38.80
2019-03-20T13:59:22.801Z,40.71
2019-03-20T14:02:09.815Z,41.32
2019-03-20T14:08:03.323Z,40.32
2019-03-20T14:10:50.923Z,40.89
2019-03-20T14:13:37.855Z,41.89
2019-03-20T14:16:24.781Z,41.77
2019-03-20T14:19:11.704Z,41.05
2019-03-20T14:21:59.603Z,40.64
2019-03-20T14:24:46.435Z,39.90
2019-03-20T14:27:33.345Z,40.29
2019-03-20T14:30:26.761Z,40.38
2019-03-20T14:33:13.686Z,36.70
2019-03-20T14:36:00.517Z,38.75
2019-03-20T14:38:47.227Z,39.14
2019-03-20T14:41:34.529Z,40.20
2019-03-20T14:44:21.442Z,36.02
2019-03-20T14:47:08.364Z,35.81
2019-03-20T14:49:55.518Z,38.49
2019-03-20T14:52:42.909Z,39.88
2019-03-20T14:55:30.185Z,39.98
2019-03-20T14:58:17.478Z,40.77
2019-03-20T15:01:04.263Z,41.14
2019-03-20T15:03:51.402Z,41.61
2019-03-20T15:06:47.499Z,40.84
2019-03-20T15:09:31.882Z,41.69
2019-03-20T15:12:18.788Z,42.00
2019-03-20T15:15:14.795Z,42.73
2019-03-20T15:18:15.856Z,42.17
2019-03-20T15:21:03.098Z,43.03
2019-03-20T15:23:50.213Z,43.62
2019-03-20T15:26:37.766Z,40.09
2019-03-20T15:29:25.133Z,39.89
2019-03-20T15:32:15.274Z,39.24
2019-03-20T15:35:02.626Z,40.01
2019-03-20T15:37:53.193Z,42.24
2019-03-20T15:40:40.326Z,39.99
2019-03-20T15:49:40.368Z,43.59
2019-03-20T15:55:35.933Z,45.18
2019-03-20T16:01:36.597Z,43.94
2019-03-20T16:04:30.899Z,44.40
2019-03-20T16:07:17.637Z,41.96
2019-03-20T16:10:08.896Z,44.36
2019-03-20T16:19:09.615Z,45.49
2019-03-20T16:21:58.110Z,43.69
2019-03-20T16:24:45.226Z,42.93
2019-03-20T16:27:39.100Z,45.51
2019-03-20T16:30:26.134Z,46.25
2019-03-20T16:48:53.544Z,50.67
2019-03-20T16:51:40.823Z,50.79
2019-03-20T16:54:27.817Z,51.28
2019-03-20T16:57:22.660Z,51.43
2019-03-20T17:03:21.384Z,51.68
2019-03-20T17:15:29.970Z,53.71
2019-03-20T17:21:25.400Z,54.43
2019-03-20T17:24:10.957Z,54.91
2019-03-20T17:33:17.343Z,56.33
2019-03-20T17:36:05.066Z,56.82
2019-03-20T17:38:51.838Z,57.45
2019-03-20T17:41:39.923Z,57.69
2019-03-20T17:44:27.440Z,58.12
2019-03-20T17:50:20.840Z,59.10
2019-03-20T17:53:07.836Z,57.50
2019-03-20T17:55:55.743Z,59.04
2019-03-20T18:01:49.317Z,59.70
2019-03-20T18:07:42.690Z,59.59
2019-03-20T18:10:29.925Z,59.87
2019-03-20T18:13:17.738Z,59.99
2019-03-20T18:16:06.839Z,60.30
2019-03-20T18:18:54.425Z,60.31
2019-03-20T18:27:54.987Z,61.14
2019-03-20T18:30:42.126Z,61.60
2019-03-20T18:33:29.411Z,61.93
2019-03-20T18:39:23.820Z,61.80
2019-03-20T18:42:11.339Z,62.31
2019-03-20T18:45:13.339Z,62.41
2019-03-20T18:48:16.136Z,62.43
2019-03-20T18:51:03.363Z,62.33
2019-03-20T18:53:51.421Z,62.08
2019-03-20T18:56:40.275Z,62.66
2019-03-20T18:59:27.348Z,63.46
2019-03-20T19:20:51.265Z,64.04
2019-03-20T19:26:44.120Z,61.90
2019-03-20T19:29:31.418Z,62.04
2019-03-20T19:32:18.873Z,62.13
2019-03-20T19:35:06.940Z,62.12
2019-03-20T19:37:53.980Z,62.55
2019-03-20T19:40:40.910Z,62.95
2019-03-20T19:46:34.305Z,63.78
2019-03-20T19:52:27.224Z,62.43
2019-03-20T19:55:14.695Z,62.85
2019-03-20T19:58:02.824Z,62.54
2019-03-20T20:00:50.015Z,60.64
2019-03-20T20:22:14.591Z,63.60
2019-03-20T20:37:27.337Z,63.79
2019-03-20T20:40:14.474Z,64.24
2019-03-20T20:43:01.834Z,64.91
2019-03-20T20:45:48.969Z,64.75
2019-03-20T21:13:31.672Z,63.69
2019-03-20T21:16:18.647Z,61.80
2019-03-20T21:19:33.365Z,63.20
2019-03-20T21:32:07.754Z,64.21
2019-03-20T21:35:25.717Z,64.04
2019-03-20T22:13:47.995Z,64.82
2019-03-20T22:17:02.808Z,64.95
2019-03-20T22:19:58.230Z,65.13
2019-03-20T22:36:16.219Z,65.55
2019-03-20T23:11:41.448Z,66.65
2019-03-20T23:14:35.646Z,67.60
2019-03-20T23:17:22.542Z,65.21
2019-03-20T23:20:13.191Z,64.49
2019-03-20T23:32:26.497Z,66.43
2019-03-20T23:35:13.951Z,66.56
2019-03-20T23:50:40.124Z,66.13
2019-03-20T23:53:27.554Z,66.32
